This is the latest recevied weather packets stored in our database for station/object N4HAC. If no packets are shown the sender has not sent any weather packets the latest 10 day(s).
| Time | Temp. | Humidity | Pressure | Rain* | Wind** | Luminosity | Snow |
|---|---|---|---|---|---|---|---|
| 1777798588 | 5.56° C | 69% | 1010.3 hPa | 0 mm | - | 0 W/m² | - |
| 1777798285 | 5.56° C | 69% | 1010.2 hPa | 0 mm | - | 0 W/m² | - |
| 1777797981 | 5.56° C | 68% | 1010.3 hPa | 0 mm | - | 0 W/m² | - |
| 1777797679 | 5.56° C | 68% | 1010.2 hPa | 0 mm | - | 0 W/m² | - |
| 1777797377 | 5.56° C | 69% | 1010.5 hPa | 0 mm | - | 0 W/m² | - |
| 1777797074 | 5° C | 71% | 1010.4 hPa | 0 mm | - | 0 W/m² | - |
| 1777796770 | 5.56° C | 70% | 1010.4 hPa | 0 mm | - | 0 W/m² | - |
| 1777796467 | 5.56° C | 69% | 1010.2 hPa | 0 mm | - | 0 W/m² | - |
| 1777796163 | 5.56° C | 68% | 1010 hPa | 0 mm | - | 0 W/m² | - |
| 1777795860 | 6.11° C | 66% | 1010 hPa | 0 mm | - | 0 W/m² | - |
| 1777795555 | 6.11° C | 66% | 1009.9 hPa | 0 mm | - | 0 W/m² | - |
| 1777795252 | 6.11° C | 66% | 1009.8 hPa | 0 mm | - | 0 W/m² | - |
| 1777794949 | 5.56° C | 68% | 1009.8 hPa | 0 mm | - | 0 W/m² | - |
| 1777794646 | 5.56° C | 69% | 1009.8 hPa | 0 mm | - | 0 W/m² | - |
| 1777794341 | 5.56° C | 69% | 1009.9 hPa | 0 mm | - | 0 W/m² | - |
| 1777794037 | 5.56° C | 71% | 1009.7 hPa | 0 mm | - | 0 W/m² | - |
| 1777793733 | 5.56° C | 69% | 1010.1 hPa | 0 mm | - | 0 W/m² | - |
| 1777793432 | 4.44° C | 75% | 1009.8 hPa | 0 mm | - | 0 W/m² | - |
| 1777793129 | 5° C | 74% | 1009.8 hPa | 0 mm | - | 0 W/m² | - |
| 1777792826 | 5° C | 73% | 1009.7 hPa | 0 mm | - | 0 W/m² | - |
| 1777792523 | 5° C | 73% | 1009.6 hPa | 0 mm | - | 0 W/m² | - |
| 1777792220 | 4.44° C | 75% | 1009.7 hPa | 0 mm | - | 0 W/m² | - |
| 1777791916 | 4.44° C | 76% | 1009.5 hPa | 0 mm | - | 0 W/m² | - |
| 1777791615 | 3.89° C | 77% | 1009.5 hPa | 0 mm | - | 0 W/m² | - |
| 1777791312 | 3.89° C | 78% | 1009.4 hPa | 0 mm | - | 0 W/m² | - |
* Rain latest hour (hover to see other rain measurements)
** Current wind speed in m/s (hover to see current wind gust speed)